sensor_id;sensor_type;location;lat;lon;timestamp;pressure;altitude;pressure_sealevel;temperature
62611;BMP280;48683;48.084;17.272;2023-03-23T00:01:45;100078.00;;;9.15
62611;BMP280;48683;48.084;17.272;2023-03-23T00:04:10;100084.44;;;9.00
62611;BMP280;48683;48.084;17.272;2023-03-23T00:06:37;100077.53;;;8.92
62611;BMP280;48683;48.084;17.272;2023-03-23T00:09:03;100076.38;;;8.93
62611;BMP280;48683;48.084;17.272;2023-03-23T00:11:30;100078.69;;;8.91
62611;BMP280;48683;48.084;17.272;2023-03-23T00:13:58;100082.88;;;8.95
62611;BMP280;48683;48.084;17.272;2023-03-23T00:16:29;100082.88;;;8.92
62611;BMP280;48683;48.084;17.272;2023-03-23T00:18:59;100083.97;;;8.77
62611;BMP280;48683;48.084;17.272;2023-03-23T00:21:27;100078.13;;;8.57
62611;BMP280;48683;48.084;17.272;2023-03-23T00:23:59;100078.78;;;8.36
62611;BMP280;48683;48.084;17.272;2023-03-23T00:26:25;100083.00;;;8.41
62611;BMP280;48683;48.084;17.272;2023-03-23T00:28:53;100083.06;;;8.48
62611;BMP280;48683;48.084;17.272;2023-03-23T00:31:19;100079.56;;;8.40
62611;BMP280;48683;48.084;17.272;2023-03-23T00:33:44;100080.69;;;8.36
62611;BMP280;48683;48.084;17.272;2023-03-23T00:36:11;100081.31;;;8.22
62611;BMP280;48683;48.084;17.272;2023-03-23T00:38:37;100087.50;;;8.30
62611;BMP280;48683;48.084;17.272;2023-03-23T00:41:04;100078.97;;;8.17
62611;BMP280;48683;48.084;17.272;2023-03-23T00:43:31;100074.59;;;7.91
62611;BMP280;48683;48.084;17.272;2023-03-23T00:45:57;100088.72;;;7.92
62611;BMP280;48683;48.084;17.272;2023-03-23T00:48:27;100088.28;;;7.86
62611;BMP280;48683;48.084;17.272;2023-03-23T00:50:53;100095.56;;;7.86
62611;BMP280;48683;48.084;17.272;2023-03-23T00:53:18;100075.53;;;7.69
62611;BMP280;48683;48.084;17.272;2023-03-23T00:55:45;100083.91;;;7.68
62611;BMP280;48683;48.084;17.272;2023-03-23T00:58:11;100080.94;;;7.76
62611;BMP280;48683;48.084;17.272;2023-03-23T01:00:37;100071.66;;;7.63
62611;BMP280;48683;48.084;17.272;2023-03-23T01:03:03;100074.09;;;7.79
62611;BMP280;48683;48.084;17.272;2023-03-23T01:05:29;100066.72;;;7.65
62611;BMP280;48683;48.084;17.272;2023-03-23T01:07:59;100064.28;;;7.49
62611;BMP280;48683;48.084;17.272;2023-03-23T01:10:24;100071.19;;;7.50
62611;BMP280;48683;48.084;17.272;2023-03-23T01:12:51;100073.81;;;7.47
62611;BMP280;48683;48.084;17.272;2023-03-23T01:15:18;100066.50;;;7.44
62611;BMP280;48683;48.084;17.272;2023-03-23T01:17:44;100071.38;;;7.31
62611;BMP280;48683;48.084;17.272;2023-03-23T01:20:12;100076.56;;;7.21
62611;BMP280;48683;48.084;17.272;2023-03-23T01:22:38;100071.75;;;7.33
62611;BMP280;48683;48.084;17.272;2023-03-23T01:25:05;100071.50;;;7.45
62611;BMP280;48683;48.084;17.272;2023-03-23T01:27:31;100068.78;;;7.42
62611;BMP280;48683;48.084;17.272;2023-03-23T01:29:56;100071.78;;;7.37
62611;BMP280;48683;48.084;17.272;2023-03-23T01:32:22;100071.50;;;7.45
62611;BMP280;48683;48.084;17.272;2023-03-23T01:34:47;100069.09;;;7.33
62611;BMP280;48683;48.084;17.272;2023-03-23T01:37:13;100065.97;;;7.28
62611;BMP280;48683;48.084;17.272;2023-03-23T01:39:38;100060.06;;;7.08
62611;BMP280;48683;48.084;17.272;2023-03-23T01:42:04;100070.88;;;7.22
62611;BMP280;48683;48.084;17.272;2023-03-23T01:46:55;100081.94;;;7.24
62611;BMP280;48683;48.084;17.272;2023-03-23T01:49:29;100073.44;;;7.11
62611;BMP280;48683;48.084;17.272;2023-03-23T01:52:00;100088.91;;;6.99
62611;BMP280;48683;48.084;17.272;2023-03-23T01:54:27;100087.78;;;6.70
62611;BMP280;48683;48.084;17.272;2023-03-23T01:57:04;100091.91;;;6.94
62611;BMP280;48683;48.084;17.272;2023-03-23T01:59:31;100092.28;;;6.92
62611;BMP280;48683;48.084;17.272;2023-03-23T02:01:59;100092.63;;;6.91
62611;BMP280;48683;48.084;17.272;2023-03-23T02:04:25;100093.44;;;6.95
62611;BMP280;48683;48.084;17.272;2023-03-23T02:06:52;100092.63;;;6.91
62611;BMP280;48683;48.084;17.272;2023-03-23T02:09:19;100087.28;;;6.91
62611;BMP280;48683;48.084;17.272;2023-03-23T02:11:46;100085.75;;;6.90
62611;BMP280;48683;48.084;17.272;2023-03-23T02:14:13;100081.63;;;6.96
62611;BMP280;48683;48.084;17.272;2023-03-23T02:17:01;100092.44;;;7.06
62611;BMP280;48683;48.084;17.272;2023-03-23T02:34:08;100079.44;;;7.05
62611;BMP280;48683;48.084;17.272;2023-03-23T02:36:40;100075.19;;;7.00
62611;BMP280;48683;48.084;17.272;2023-03-23T02:39:38;100081.72;;;7.03
62611;BMP280;48683;48.084;17.272;2023-03-23T02:42:08;100079.75;;;6.96
62611;BMP280;48683;48.084;17.272;2023-03-23T02:44:38;100085.00;;;6.93
62611;BMP280;48683;48.084;17.272;2023-03-23T02:47:07;100078.13;;;6.88
62611;BMP280;48683;48.084;17.272;2023-03-23T02:49:35;100077.34;;;6.88
62611;BMP280;48683;48.084;17.272;2023-03-23T02:52:06;100077.31;;;6.84
62611;BMP280;48683;48.084;17.272;2023-03-23T02:54:33;100077.66;;;6.83
62611;BMP280;48683;48.084;17.272;2023-03-23T02:56:59;100075.28;;;6.78
62611;BMP280;48683;48.084;17.272;2023-03-23T02:59:26;100075.28;;;6.78
62611;BMP280;48683;48.084;17.272;2023-03-23T03:08:00;100085.31;;;6.58
62611;BMP280;48683;48.084;17.272;2023-03-23T03:10:35;100096.72;;;6.55
62611;BMP280;48683;48.084;17.272;2023-03-23T03:21:16;100095.16;;;6.54
62611;BMP280;48683;48.084;17.272;2023-03-23T03:23:46;100096.63;;;6.48
62611;BMP280;48683;48.084;17.272;2023-03-23T03:26:12;100089.34;;;6.45
62611;BMP280;48683;48.084;17.272;2023-03-23T03:28:43;100092.25;;;6.36
62611;BMP280;48683;48.084;17.272;2023-03-23T03:31:13;100077.28;;;6.28
62611;BMP280;48683;48.084;17.272;2023-03-23T03:33:40;100083.38;;;6.29
62611;BMP280;48683;48.084;17.272;2023-03-23T03:36:06;100079.22;;;6.31
62611;BMP280;48683;48.084;17.272;2023-03-23T03:38:41;100087.56;;;6.26
62611;BMP280;48683;48.084;17.272;2023-03-23T03:41:07;100083.94;;;6.15
62611;BMP280;48683;48.084;17.272;2023-03-23T03:43:33;100088.53;;;6.14
62611;BMP280;48683;48.084;17.272;2023-03-23T03:46:00;100094.91;;;6.10
62611;BMP280;48683;48.084;17.272;2023-03-23T03:48:25;100095.97;;;6.05
62611;BMP280;48683;48.084;17.272;2023-03-23T03:50:50;100103.63;;;6.07
62611;BMP280;48683;48.084;17.272;2023-03-23T03:53:17;100101.66;;;6.04
62611;BMP280;48683;48.084;17.272;2023-03-23T03:55:42;100119.28;;;6.12
62611;BMP280;48683;48.084;17.272;2023-03-23T03:58:10;100100.00;;;6.18
62611;BMP280;48683;48.084;17.272;2023-03-23T04:00:35;100097.56;;;6.10
62611;BMP280;48683;48.084;17.272;2023-03-23T04:03:01;100107.56;;;6.16
62611;BMP280;48683;48.084;17.272;2023-03-23T04:05:26;100103.06;;;6.20
62611;BMP280;48683;48.084;17.272;2023-03-23T04:07:53;100104.13;;;6.16
62611;BMP280;48683;48.084;17.272;2023-03-23T04:10:20;100098.47;;;6.17
62611;BMP280;48683;48.084;17.272;2023-03-23T04:12:46;100102.25;;;6.16
62611;BMP280;48683;48.084;17.272;2023-03-23T04:15:12;100102.13;;;6.09
62611;BMP280;48683;48.084;17.272;2023-03-23T04:17:37;100101.66;;;6.04
62611;BMP280;48683;48.084;17.272;2023-03-23T04:20:04;100108.97;;;6.07
62611;BMP280;48683;48.084;17.272;2023-03-23T04:22:38;100108.19;;;6.06
62611;BMP280;48683;48.084;17.272;2023-03-23T04:25:04;100106.63;;;6.05
62611;BMP280;48683;48.084;17.272;2023-03-23T04:27:31;100106.69;;;5.86
62611;BMP280;48683;48.084;17.272;2023-03-23T04:29:57;100110.16;;;5.87
62611;BMP280;48683;48.084;17.272;2023-03-23T04:32:25;100115.22;;;5.95
62611;BMP280;48683;48.084;17.272;2023-03-23T04:34:55;100116.47;;;6.01
62611;BMP280;48683;48.084;17.272;2023-03-23T04:37:21;100121.84;;;6.05
62611;BMP280;48683;48.084;17.272;2023-03-23T04:39:51;100120.03;;;6.09
62611;BMP280;48683;48.084;17.272;2023-03-23T04:42:29;100123.16;;;6.14
62611;BMP280;48683;48.084;17.272;2023-03-23T04:44:58;100129.25;;;6.15
62611;BMP280;48683;48.084;17.272;2023-03-23T04:47:25;100128.78;;;6.09
62611;BMP280;48683;48.084;17.272;2023-03-23T04:49:57;100121.06;;;6.04
62611;BMP280;48683;48.084;17.272;2023-03-23T04:52:24;100117.97;;;5.99
62611;BMP280;48683;48.084;17.272;2023-03-23T04:54:50;100117.97;;;5.99
62611;BMP280;48683;48.084;17.272;2023-03-23T04:57:16;100117.25;;;6.02
62611;BMP280;48683;48.084;17.272;2023-03-23T04:59:42;100107.34;;;6.02
62611;BMP280;48683;48.084;17.272;2023-03-23T05:02:09;100110.84;;;6.06
62611;BMP280;48683;48.084;17.272;2023-03-23T05:04:34;100109.69;;;6.07
62611;BMP280;48683;48.084;17.272;2023-03-23T05:06:59;100099.81;;;6.08
62611;BMP280;48683;48.084;17.272;2023-03-23T05:09:25;100101.75;;;6.11
62611;BMP280;48683;48.084;17.272;2023-03-23T05:11:51;100101.66;;;6.04
62611;BMP280;48683;48.084;17.272;2023-03-23T05:14:16;100112.91;;;5.94
62611;BMP280;48683;48.084;17.272;2023-03-23T05:16:41;100115.66;;;5.78
62611;BMP280;48683;48.084;17.272;2023-03-23T05:19:07;100127.34;;;5.93
62611;BMP280;48683;48.084;17.272;2023-03-23T05:21:33;100108.56;;;5.86
62611;BMP280;48683;48.084;17.272;2023-03-23T05:23:59;100121.81;;;5.82
62611;BMP280;48683;48.084;17.272;2023-03-23T05:26:26;100137.97;;;5.89
62611;BMP280;48683;48.084;17.272;2023-03-23T05:28:54;100139.44;;;6.09
62611;BMP280;48683;48.084;17.272;2023-03-23T05:31:21;100134.22;;;6.16
62611;BMP280;48683;48.084;17.272;2023-03-23T05:33:47;100147.66;;;6.24
62611;BMP280;48683;48.084;17.272;2023-03-23T05:36:12;100141.63;;;6.27
62611;BMP280;48683;48.084;17.272;2023-03-23T05:38:41;100147.09;;;6.34
62611;BMP280;48683;48.084;17.272;2023-03-23T05:41:16;100148.34;;;6.43
62611;BMP280;48683;48.084;17.272;2023-03-23T05:43:41;100148.97;;;6.59
62611;BMP280;48683;48.084;17.272;2023-03-23T05:46:07;100157.22;;;6.77
62611;BMP280;48683;48.084;17.272;2023-03-23T05:48:33;100139.44;;;6.85
62611;BMP280;48683;48.084;17.272;2023-03-23T05:50:59;100148.25;;;6.89
62611;BMP280;48683;48.084;17.272;2023-03-23T05:53:24;100146.13;;;7.01
62611;BMP280;48683;48.084;17.272;2023-03-23T05:55:51;100150.16;;;7.18
62611;BMP280;48683;48.084;17.272;2023-03-23T05:58:16;100148.84;;;7.35
62611;BMP280;48683;48.084;17.272;2023-03-23T06:00:42;100155.81;;;7.43
62611;BMP280;48683;48.084;17.272;2023-03-23T06:03:07;100152.84;;;7.55
62611;BMP280;48683;48.084;17.272;2023-03-23T06:05:33;100150.69;;;7.64
62611;BMP280;48683;48.084;17.272;2023-03-23T06:07:58;100151.50;;;7.72
62611;BMP280;48683;48.084;17.272;2023-03-23T06:10:25;100150.75;;;7.71
62611;BMP280;48683;48.084;17.272;2023-03-23T06:12:50;100149.69;;;7.79
62611;BMP280;48683;48.084;17.272;2023-03-23T06:15:19;100162.00;;;7.91
62611;BMP280;48683;48.084;17.272;2023-03-23T06:17:45;100161.41;;;8.04
62611;BMP280;48683;48.084;17.272;2023-03-23T06:20:10;100171.47;;;8.22
62611;BMP280;48683;48.084;17.272;2023-03-23T06:22:37;100160.47;;;8.30
62611;BMP280;48683;48.084;17.272;2023-03-23T06:25:04;100165.22;;;8.47
62611;BMP280;48683;48.084;17.272;2023-03-23T06:27:30;100161.84;;;8.61
62611;BMP280;48683;48.084;17.272;2023-03-23T06:29:55;100172.31;;;8.80
62611;BMP280;48683;48.084;17.272;2023-03-23T06:32:22;100168.16;;;8.90
62611;BMP280;48683;48.084;17.272;2023-03-23T06:34:49;100172.03;;;8.99
62611;BMP280;48683;48.084;17.272;2023-03-23T06:37:14;100171.72;;;9.12
62611;BMP280;48683;48.084;17.272;2023-03-23T06:39:41;100163.34;;;9.20
62611;BMP280;48683;48.084;17.272;2023-03-23T06:42:09;100177.19;;;9.36
62611;BMP280;48683;48.084;17.272;2023-03-23T06:44:36;100185.28;;;9.54
62611;BMP280;48683;48.084;17.272;2023-03-23T06:47:01;100170.78;;;9.73
62611;BMP280;48683;48.084;17.272;2023-03-23T06:49:27;100175.41;;;9.83
62611;BMP280;48683;48.084;17.272;2023-03-23T06:51:52;100171.97;;;9.93
62611;BMP280;48683;48.084;17.272;2023-03-23T06:54:18;100171.19;;;9.89
62611;BMP280;48683;48.084;17.272;2023-03-23T06:56:43;100173.53;;;10.05
62611;BMP280;48683;48.084;17.272;2023-03-23T06:59:09;100174.72;;;10.18
62611;BMP280;48683;48.084;17.272;2023-03-23T07:01:35;100172.78;;;10.39
62611;BMP280;48683;48.084;17.272;2023-03-23T07:04:01;100176.63;;;10.56
62611;BMP280;48683;48.084;17.272;2023-03-23T07:06:27;100176.63;;;10.67
62611;BMP280;48683;48.084;17.272;2023-03-23T07:08:52;100178.50;;;10.84
62611;BMP280;48683;48.084;17.272;2023-03-23T07:11:18;100184.59;;;11.06
62611;BMP280;48683;48.084;17.272;2023-03-23T07:13:43;100181.13;;;11.12
62611;BMP280;48683;48.084;17.272;2023-03-23T07:16:08;100184.56;;;11.16
62611;BMP280;48683;48.084;17.272;2023-03-23T07:18:35;100176.13;;;11.14
62611;BMP280;48683;48.084;17.272;2023-03-23T07:21:01;100176.84;;;11.25
62611;BMP280;48683;48.084;17.272;2023-03-23T07:23:28;100171.09;;;11.30
62611;BMP280;48683;48.084;17.272;2023-03-23T07:25:53;100181.78;;;11.41
62611;BMP280;48683;48.084;17.272;2023-03-23T07:28:19;100172.53;;;11.46
62611;BMP280;48683;48.084;17.272;2023-03-23T07:30:44;100171.38;;;11.50
62611;BMP280;48683;48.084;17.272;2023-03-23T07:33:10;100174.78;;;11.61
62611;BMP280;48683;48.084;17.272;2023-03-23T07:35:36;100180.06;;;11.79
62611;BMP280;48683;48.084;17.272;2023-03-23T07:38:02;100180.44;;;11.84
62611;BMP280;48683;48.084;17.272;2023-03-23T07:40:28;100183.03;;;11.99
62611;BMP280;48683;48.084;17.272;2023-03-23T07:42:56;100162.59;;;12.08
62611;BMP280;48683;48.084;17.272;2023-03-23T07:45:23;100165.94;;;12.23
62611;BMP280;48683;48.084;17.272;2023-03-23T07:47:48;100161.41;;;12.16
62611;BMP280;48683;48.084;17.272;2023-03-23T07:50:14;100165.53;;;12.28
62611;BMP280;48683;48.084;17.272;2023-03-23T07:52:40;100166.94;;;12.43
62611;BMP280;48683;48.084;17.272;2023-03-23T07:55:08;100173.41;;;12.49
62611;BMP280;48683;48.084;17.272;2023-03-23T07:57:34;100160.28;;;12.55
62611;BMP280;48683;48.084;17.272;2023-03-23T07:59:59;100163.22;;;12.71
62611;BMP280;48683;48.084;17.272;2023-03-23T08:02:25;100168.91;;;12.80
62611;BMP280;48683;48.084;17.272;2023-03-23T08:04:52;100170.69;;;12.94
62611;BMP280;48683;48.084;17.272;2023-03-23T08:07:18;100168.34;;;12.96
62611;BMP280;48683;48.084;17.272;2023-03-23T08:09:44;100168.28;;;13.03
62611;BMP280;48683;48.084;17.272;2023-03-23T08:12:09;100163.53;;;13.17
62611;BMP280;48683;48.084;17.272;2023-03-23T08:14:35;100158.41;;;13.26
62611;BMP280;48683;48.084;17.272;2023-03-23T08:17:00;100152.66;;;13.24
62611;BMP280;48683;48.084;17.272;2023-03-23T08:19:26;100156.13;;;13.25
62611;BMP280;48683;48.084;17.272;2023-03-23T08:21:51;100158.00;;;13.28
62611;BMP280;48683;48.084;17.272;2023-03-23T08:24:17;100158.72;;;13.32
62611;BMP280;48683;48.084;17.272;2023-03-23T08:26:44;100169.81;;;13.38
62611;BMP280;48683;48.084;17.272;2023-03-23T08:29:09;100169.06;;;13.37
62611;BMP280;48683;48.084;17.272;2023-03-23T08:31:34;100171.63;;;13.48
62611;BMP280;48683;48.084;17.272;2023-03-23T08:34:04;100162.66;;;13.54
62611;BMP280;48683;48.084;17.272;2023-03-23T08:36:33;100169.97;;;13.57
62611;BMP280;48683;48.084;17.272;2023-03-23T08:39:00;100171.34;;;13.69
62611;BMP280;48683;48.084;17.272;2023-03-23T08:41:26;100168.16;;;13.74
62611;BMP280;48683;48.084;17.272;2023-03-23T08:43:51;100163.50;;;13.78
62611;BMP280;48683;48.084;17.272;2023-03-23T08:46:18;100171.06;;;13.60
62611;BMP280;48683;48.084;17.272;2023-03-23T08:48:45;100170.16;;;13.70
62611;BMP280;48683;48.084;17.272;2023-03-23T08:51:11;100179.53;;;13.89
62611;BMP280;48683;48.084;17.272;2023-03-23T08:53:37;100182.34;;;14.08
62611;BMP280;48683;48.084;17.272;2023-03-23T08:56:08;100173.75;;;14.13
62611;BMP280;48683;48.084;17.272;2023-03-23T08:58:34;100183.47;;;14.34
62611;BMP280;48683;48.084;17.272;2023-03-23T09:01:01;100182.44;;;14.51
62611;BMP280;48683;48.084;17.272;2023-03-23T09:03:27;100180.03;;;14.57
62611;BMP280;48683;48.084;17.272;2023-03-23T09:05:53;100181.06;;;14.63
62611;BMP280;48683;48.084;17.272;2023-03-23T09:08:19;100179.78;;;14.71
62611;BMP280;48683;48.084;17.272;2023-03-23T09:10:44;100179.16;;;14.83
62611;BMP280;48683;48.084;17.272;2023-03-23T09:13:10;100178.53;;;14.76
62611;BMP280;48683;48.084;17.272;2023-03-23T09:15:35;100162.84;;;14.67
62611;BMP280;48683;48.084;17.272;2023-03-23T09:18:01;100157.59;;;14.60
62611;BMP280;48683;48.084;17.272;2023-03-23T09:20:27;100148.75;;;14.79
62611;BMP280;48683;48.084;17.272;2023-03-23T09:22:55;100148.19;;;14.88
62611;BMP280;48683;48.084;17.272;2023-03-23T09:25:24;100152.28;;;14.96
62611;BMP280;48683;48.084;17.272;2023-03-23T09:27:53;100151.06;;;15.00
62611;BMP280;48683;48.084;17.272;2023-03-23T09:30:22;100153.22;;;15.09
62611;BMP280;48683;48.084;17.272;2023-03-23T09:32:48;100153.22;;;15.09
62611;BMP280;48683;48.084;17.272;2023-03-23T09:35:14;100162.25;;;15.38
62611;BMP280;48683;48.084;17.272;2023-03-23T09:37:44;100164.13;;;15.61
62611;BMP280;48683;48.084;17.272;2023-03-23T09:40:26;100163.31;;;15.80
62611;BMP280;48683;48.084;17.272;2023-03-23T09:51:44;100162.22;;;16.42
62611;BMP280;48683;48.084;17.272;2023-03-23T09:54:38;100158.00;;;16.41
62611;BMP280;48683;48.084;17.272;2023-03-23T09:57:12;100151.06;;;16.56
62611;BMP280;48683;48.084;17.272;2023-03-23T10:02:13;100140.22;;;16.56
62611;BMP280;48683;48.084;17.272;2023-03-23T10:04:48;100137.75;;;16.46
62611;BMP280;48683;48.084;17.272;2023-03-23T10:07:15;100140.78;;;16.64
62611;BMP280;48683;48.084;17.272;2023-03-23T10:09:43;100144.56;;;16.83
62611;BMP280;48683;48.084;17.272;2023-03-23T10:12:29;100147.59;;;17.26
62611;BMP280;48683;48.084;17.272;2023-03-23T10:17:42;100148.91;;;17.47
62611;BMP280;48683;48.084;17.272;2023-03-23T10:22:47;100136.81;;;17.64
62611;BMP280;48683;48.084;17.272;2023-03-23T10:25:19;100129.63;;;17.83
62611;BMP280;48683;48.084;17.272;2023-03-23T10:30:37;100123.97;;;18.02
62611;BMP280;48683;48.084;17.272;2023-03-23T10:33:10;100123.00;;;17.96
62611;BMP280;48683;48.084;17.272;2023-03-23T10:36:14;100115.44;;;17.66
62611;BMP280;48683;48.084;17.272;2023-03-23T10:38:45;100126.81;;;17.86
62611;BMP280;48683;48.084;17.272;2023-03-23T10:41:15;100119.28;;;18.16
62611;BMP280;48683;48.084;17.272;2023-03-23T10:43:42;100118.13;;;18.38
62611;BMP280;48683;48.084;17.272;2023-03-23T10:46:48;100116.03;;;18.42
62611;BMP280;48683;48.084;17.272;2023-03-23T10:49:25;100098.28;;;18.63
62611;BMP280;48683;48.084;17.272;2023-03-23T10:54:38;100100.78;;;19.01
62611;BMP280;48683;48.084;17.272;2023-03-23T10:57:26;100094.28;;;18.99
62611;BMP280;48683;48.084;17.272;2023-03-23T11:02:41;100081.56;;;18.95
62611;BMP280;48683;48.084;17.272;2023-03-23T11:05:35;100075.69;;;18.97
62611;BMP280;48683;48.084;17.272;2023-03-23T11:08:01;100093.41;;;19.32
62611;BMP280;48683;48.084;17.272;2023-03-23T11:10:39;100087.06;;;19.35
62611;BMP280;48683;48.084;17.272;2023-03-23T11:13:04;100078.69;;;19.30
62611;BMP280;48683;48.084;17.272;2023-03-23T11:15:40;100069.91;;;19.48
62611;BMP280;48683;48.084;17.272;2023-03-23T11:21:02;100070.75;;;19.75
62611;BMP280;48683;48.084;17.272;2023-03-23T11:23:32;100063.47;;;19.81
62611;BMP280;48683;48.084;17.272;2023-03-23T11:26:18;100073.66;;;20.08
62611;BMP280;48683;48.084;17.272;2023-03-23T11:29:10;100068.38;;;20.23
62611;BMP280;48683;48.084;17.272;2023-03-23T11:32:05;100052.66;;;20.36
62611;BMP280;48683;48.084;17.272;2023-03-23T11:37:07;100043.88;;;20.32
62611;BMP280;48683;48.084;17.272;2023-03-23T11:39:55;100036.16;;;20.30
62611;BMP280;48683;48.084;17.272;2023-03-23T11:42:23;100036.78;;;20.34
62611;BMP280;48683;48.084;17.272;2023-03-23T11:44:53;100030.84;;;20.27
62611;BMP280;48683;48.084;17.272;2023-03-23T11:47:32;100033.13;;;20.28
62611;BMP280;48683;48.084;17.272;2023-03-23T11:53:01;100022.97;;;20.47
62611;BMP280;48683;48.084;17.272;2023-03-23T11:55:35;100009.06;;;20.36
62611;BMP280;48683;48.084;17.272;2023-03-23T11:58:13;100014.00;;;20.65
62611;BMP280;48683;48.084;17.272;2023-03-23T12:00:58;100009.28;;;20.74
62611;BMP280;48683;48.084;17.272;2023-03-23T12:06:08;99999.63;;;21.06
62611;BMP280;48683;48.084;17.272;2023-03-23T12:08:53;99999.03;;;21.02
62611;BMP280;48683;48.084;17.272;2023-03-23T12:14:14;99982.50;;;21.06
62611;BMP280;48683;48.084;17.272;2023-03-23T12:19:49;99975.56;;;20.96
62611;BMP280;48683;48.084;17.272;2023-03-23T12:25:30;99968.44;;;20.98
62611;BMP280;48683;48.084;17.272;2023-03-23T12:30:58;99970.91;;;21.53
62611;BMP280;48683;48.084;17.272;2023-03-23T12:42:06;99944.16;;;21.33
62611;BMP280;48683;48.084;17.272;2023-03-23T12:44:46;99952.78;;;21.41
62611;BMP280;48683;48.084;17.272;2023-03-23T12:47:21;99952.59;;;21.44
62611;BMP280;48683;48.084;17.272;2023-03-23T12:49:56;99947.31;;;21.41
62611;BMP280;48683;48.084;17.272;2023-03-23T12:52:29;99946.84;;;21.42
62611;BMP280;48683;48.084;17.272;2023-03-23T12:55:12;99942.75;;;21.47
62611;BMP280;48683;48.084;17.272;2023-03-23T12:57:41;99952.19;;;21.37
62611;BMP280;48683;48.084;17.272;2023-03-23T13:05:53;99940.50;;;21.36
62611;BMP280;48683;48.084;17.272;2023-03-23T13:08:40;99936.88;;;21.39
62611;BMP280;48683;48.084;17.272;2023-03-23T13:11:15;99936.88;;;21.39
62611;BMP280;48683;48.084;17.272;2023-03-23T13:13:50;99931.91;;;21.28
62611;BMP280;48683;48.084;17.272;2023-03-23T13:19:53;99914.28;;;21.15
62611;BMP280;48683;48.084;17.272;2023-03-23T13:22:30;99910.22;;;21.01
62611;BMP280;48683;48.084;17.272;2023-03-23T13:25:00;99915.03;;;21.06
62611;BMP280;48683;48.084;17.272;2023-03-23T13:27:26;99909.75;;;21.12
62611;BMP280;48683;48.084;17.272;2023-03-23T13:29:54;99911.88;;;21.08
62611;BMP280;48683;48.084;17.272;2023-03-23T13:32:32;99911.94;;;21.22
62611;BMP280;48683;48.084;17.272;2023-03-23T13:35:02;99903.53;;;21.35
62611;BMP280;48683;48.084;17.272;2023-03-23T13:37:28;99901.25;;;21.34
62611;BMP280;48683;48.084;17.272;2023-03-23T13:40:11;99891.56;;;21.33
62611;BMP280;48683;48.084;17.272;2023-03-23T13:42:49;99885.91;;;21.36
62611;BMP280;48683;48.084;17.272;2023-03-23T13:47:48;99881.91;;;21.46
62611;BMP280;48683;48.084;17.272;2023-03-23T13:55:29;99877.00;;;21.36
62611;BMP280;48683;48.084;17.272;2023-03-23T13:58:22;99883.75;;;21.40
62611;BMP280;48683;48.084;17.272;2023-03-23T14:01:01;99875.56;;;21.40
62611;BMP280;48683;48.084;17.272;2023-03-23T14:03:36;99873.91;;;21.43
62611;BMP280;48683;48.084;17.272;2023-03-23T14:06:23;99879.38;;;21.43
62611;BMP280;48683;48.084;17.272;2023-03-23T14:08:52;99872.34;;;21.51
62611;BMP280;48683;48.084;17.272;2023-03-23T14:11:27;99881.19;;;21.60
62611;BMP280;48683;48.084;17.272;2023-03-23T14:14:06;99877.50;;;21.63
62611;BMP280;48683;48.084;17.272;2023-03-23T14:16:35;99887.41;;;21.61
62611;BMP280;48683;48.084;17.272;2023-03-23T14:19:04;99880.59;;;21.56
62611;BMP280;48683;48.084;17.272;2023-03-23T14:21:41;99885.56;;;21.67
62611;BMP280;48683;48.084;17.272;2023-03-23T14:24:12;99874.91;;;21.69
62611;BMP280;48683;48.084;17.272;2023-03-23T14:26:39;99880.34;;;21.69
62611;BMP280;48683;48.084;17.272;2023-03-23T14:29:05;99877.25;;;21.76
62611;BMP280;48683;48.084;17.272;2023-03-23T14:31:31;99862.25;;;21.57
62611;BMP280;48683;48.084;17.272;2023-03-23T14:34:02;99866.03;;;21.59
62611;BMP280;48683;48.084;17.272;2023-03-23T14:36:31;99865.94;;;21.54
62611;BMP280;48683;48.084;17.272;2023-03-23T14:39:01;99861.88;;;21.49
62611;BMP280;48683;48.084;17.272;2023-03-23T14:41:29;99858.69;;;21.51
62611;BMP280;48683;48.084;17.272;2023-03-23T14:43:56;99855.25;;;21.41
62611;BMP280;48683;48.084;17.272;2023-03-23T14:46:22;99850.09;;;21.43
62611;BMP280;48683;48.084;17.272;2023-03-23T14:48:49;99856.47;;;21.40
62611;BMP280;48683;48.084;17.272;2023-03-23T14:51:19;99861.47;;;21.42
62611;BMP280;48683;48.084;17.272;2023-03-23T14:53:45;99854.69;;;21.37
62611;BMP280;48683;48.084;17.272;2023-03-23T14:56:14;99862.78;;;21.32
62611;BMP280;48683;48.084;17.272;2023-03-23T14:58:49;99866.25;;;21.32
62611;BMP280;48683;48.084;17.272;2023-03-23T15:01:24;99865.59;;;21.37
62611;BMP280;48683;48.084;17.272;2023-03-23T15:03:58;99865.78;;;21.34
62611;BMP280;48683;48.084;17.272;2023-03-23T15:06:27;99866.00;;;21.45
62611;BMP280;48683;48.084;17.272;2023-03-23T15:08:55;99866.56;;;21.49
62611;BMP280;48683;48.084;17.272;2023-03-23T15:11:30;99865.72;;;21.43
62611;BMP280;48683;48.084;17.272;2023-03-23T15:13:58;99865.72;;;21.43
62611;BMP280;48683;48.084;17.272;2023-03-23T15:16:30;99858.75;;;21.42
62611;BMP280;48683;48.084;17.272;2023-03-23T15:18:58;99864.97;;;21.42
62611;BMP280;48683;48.084;17.272;2023-03-23T15:23:50;99851.53;;;21.29
62611;BMP280;48683;48.084;17.272;2023-03-23T15:29:11;99865.75;;;21.10
62611;BMP280;48683;48.084;17.272;2023-03-23T15:31:55;99860.66;;;21.03
62611;BMP280;48683;48.084;17.272;2023-03-23T15:34:29;99855.13;;;20.88
62611;BMP280;48683;48.084;17.272;2023-03-23T15:37:00;99858.50;;;20.83
62611;BMP280;48683;48.084;17.272;2023-03-23T15:39:27;99858.69;;;20.70
62611;BMP280;48683;48.084;17.272;2023-03-23T15:41:53;99860.53;;;20.73
62611;BMP280;48683;48.084;17.272;2023-03-23T15:44:26;99862.19;;;20.71
62611;BMP280;48683;48.084;17.272;2023-03-23T15:47:17;99855.53;;;20.72
62611;BMP280;48683;48.084;17.272;2023-03-23T15:49:45;99854.34;;;20.64
62611;BMP280;48683;48.084;17.272;2023-03-23T15:52:11;99857.41;;;20.57
62611;BMP280;48683;48.084;17.272;2023-03-23T15:54:37;99851.66;;;20.55